createdAt,value
2018-09-11T00:00:23.860Z,19.40
2018-09-11T00:02:53.055Z,19.30
2018-09-11T00:05:22.237Z,19.10
2018-09-11T00:07:54.396Z,19.00
2018-09-11T00:10:23.895Z,18.90
2018-09-11T00:12:53.337Z,18.90
2018-09-11T00:15:22.630Z,18.90
2018-09-11T00:17:51.820Z,18.90
2018-09-11T00:20:21.004Z,18.90
2018-09-11T00:22:50.191Z,18.90
2018-09-11T00:25:19.372Z,19.00
2018-09-11T00:27:48.561Z,19.00
2018-09-11T00:30:17.728Z,18.90
2018-09-11T00:32:46.937Z,18.90
2018-09-11T00:35:16.112Z,18.80
2018-09-11T00:37:45.304Z,18.60
2018-09-11T00:40:14.510Z,18.60
2018-09-11T00:42:43.704Z,18.60
2018-09-11T00:45:12.891Z,18.50
2018-09-11T00:47:48.771Z,18.30
2018-09-11T00:50:17.952Z,18.30
2018-09-11T00:52:47.166Z,18.30
2018-09-11T00:55:16.356Z,18.40
2018-09-11T00:57:45.600Z,18.40
2018-09-11T01:00:14.769Z,18.30
2018-09-11T01:02:43.964Z,18.40
2018-09-11T01:05:13.149Z,18.10
2018-09-11T01:07:42.349Z,18.20
2018-09-11T01:10:11.972Z,18.00
2018-09-11T01:12:41.164Z,17.90
2018-09-11T01:15:10.832Z,17.80
2018-09-11T01:17:40.033Z,17.80
2018-09-11T01:20:09.747Z,17.90
2018-09-11T01:22:39.020Z,17.80
2018-09-11T01:25:08.216Z,17.80
2018-09-11T01:27:37.409Z,17.80
2018-09-11T01:30:07.196Z,17.70
2018-09-11T01:32:36.408Z,17.60
2018-09-11T01:35:05.582Z,17.50
2018-09-11T01:37:34.789Z,17.40
2018-09-11T01:40:03.989Z,17.30
2018-09-11T01:42:33.204Z,17.40
2018-09-11T01:45:02.456Z,17.30
2018-09-11T01:47:31.663Z,17.30
2018-09-11T01:50:00.850Z,17.40
2018-09-11T01:52:30.056Z,17.50
2018-09-11T01:54:59.235Z,17.40
2018-09-11T01:57:28.461Z,17.50
2018-09-11T01:59:57.641Z,17.60
2018-09-11T02:02:26.844Z,17.50
2018-09-11T02:04:56.020Z,17.50
2018-09-11T02:07:25.209Z,17.40
2018-09-11T02:09:54.440Z,17.30
2018-09-11T02:12:23.628Z,17.30
2018-09-11T02:14:52.811Z,17.40
2018-09-11T02:17:28.300Z,17.30
2018-09-11T02:19:57.540Z,17.30
2018-09-11T02:22:26.824Z,17.30
2018-09-11T02:24:56.004Z,17.30
2018-09-11T02:27:25.219Z,17.30
2018-09-11T02:29:54.388Z,17.30
2018-09-11T02:32:23.588Z,17.20
2018-09-11T02:34:52.764Z,17.30
2018-09-11T02:37:21.956Z,17.20
2018-09-11T02:39:51.137Z,17.00
2018-09-11T02:42:20.352Z,17.00
2018-09-11T02:44:49.544Z,16.90
2018-09-11T02:47:18.721Z,16.80
2018-09-11T02:49:47.916Z,16.70
2018-09-11T02:52:17.098Z,16.70
2018-09-11T02:54:46.329Z,16.70
2018-09-11T02:57:15.504Z,16.60
2018-09-11T02:59:44.699Z,16.60
2018-09-11T03:02:13.884Z,16.60
2018-09-11T03:04:43.085Z,16.50
2018-09-11T03:07:12.256Z,16.60
2018-09-11T03:09:41.480Z,16.70
2018-09-11T03:12:10.672Z,16.70
2018-09-11T03:14:39.868Z,16.70
2018-09-11T03:17:09.280Z,16.60
2018-09-11T03:19:38.502Z,16.50
2018-09-11T03:22:07.693Z,16.50
2018-09-11T03:24:36.893Z,16.60
2018-09-11T03:27:06.085Z,16.50
2018-09-11T03:29:35.303Z,16.40
2018-09-11T03:32:04.478Z,16.40
2018-09-11T03:34:33.672Z,16.50
2018-09-11T03:37:02.842Z,16.40
2018-09-11T03:39:32.044Z,16.40
2018-09-11T03:42:01.227Z,16.30
2018-09-11T03:44:30.425Z,16.20
2018-09-11T03:46:59.608Z,16.10
2018-09-11T03:49:28.800Z,16.00
2018-09-11T03:51:57.984Z,16.00
2018-09-11T03:54:27.216Z,16.00
2018-09-11T03:56:56.419Z,16.00
2018-09-11T03:59:25.625Z,15.90
2018-09-11T04:01:54.812Z,15.90
2018-09-11T04:04:24.006Z,15.90
2018-09-11T04:06:53.182Z,15.80
2018-09-11T04:09:22.428Z,16.00
2018-09-11T04:11:51.644Z,16.00
2018-09-11T04:14:20.840Z,16.00
2018-09-11T04:16:50.000Z,16.00
2018-09-11T04:19:19.196Z,16.00
2018-09-11T04:21:48.436Z,16.00
2018-09-11T04:24:17.656Z,16.00
2018-09-11T04:26:46.858Z,16.00
2018-09-11T04:29:16.056Z,16.00
2018-09-11T04:31:45.235Z,15.90
2018-09-11T04:34:14.428Z,15.80
2018-09-11T04:36:43.604Z,15.80
2018-09-11T04:39:12.812Z,15.80
2018-09-11T04:41:41.996Z,15.80
2018-09-11T04:44:11.653Z,15.80
2018-09-11T04:46:40.921Z,15.80
2018-09-11T04:49:10.141Z,15.80
2018-09-11T04:51:39.339Z,15.70
2018-09-11T04:54:08.536Z,15.70
2018-09-11T04:56:37.768Z,15.70
2018-09-11T04:59:07.004Z,15.70
2018-09-11T05:01:36.201Z,15.70
2018-09-11T05:04:05.416Z,15.70
2018-09-11T05:06:34.592Z,15.60
2018-09-11T05:09:04.082Z,15.70
2018-09-11T05:11:33.324Z,15.80
2018-09-11T05:14:02.555Z,15.80
2018-09-11T05:16:32.592Z,15.90
2018-09-11T05:19:01.852Z,15.90
2018-09-11T05:21:31.036Z,15.80
2018-09-11T05:24:00.265Z,15.80
2018-09-11T05:26:29.536Z,15.80
2018-09-11T05:28:58.767Z,15.90
2018-09-11T05:31:27.996Z,15.90
2018-09-11T05:33:57.199Z,16.00
2018-09-11T05:36:26.377Z,16.00
2018-09-11T05:38:55.608Z,16.00
2018-09-11T05:41:24.800Z,16.00
2018-09-11T05:43:54.035Z,16.10
2018-09-11T05:46:23.224Z,16.00
2018-09-11T05:48:52.428Z,16.00
2018-09-11T05:51:21.608Z,16.10
2018-09-11T05:53:50.860Z,16.10
2018-09-11T05:56:20.578Z,16.20
2018-09-11T05:58:56.476Z,16.20
2018-09-11T06:01:25.681Z,16.20
2018-09-11T06:03:54.906Z,16.20
2018-09-11T06:06:24.112Z,16.20
2018-09-11T06:08:53.271Z,16.30
2018-09-11T06:11:22.512Z,16.30
2018-09-11T06:13:51.977Z,16.40
2018-09-11T06:16:21.251Z,16.40
2018-09-11T06:18:50.481Z,16.50
2018-09-11T06:21:19.774Z,16.50
2018-09-11T06:23:48.961Z,16.50
2018-09-11T06:26:18.164Z,16.60
2018-09-11T06:28:47.360Z,16.60
2018-09-11T06:31:16.565Z,16.70
2018-09-11T06:33:45.744Z,16.80
2018-09-11T06:36:14.943Z,16.80
2018-09-11T06:38:44.132Z,16.80
2018-09-11T06:41:13.333Z,16.80
2018-09-11T06:43:42.540Z,16.80
2018-09-11T06:46:11.756Z,16.80
2018-09-11T06:48:41.302Z,16.80
2018-09-11T06:51:10.551Z,16.90
2018-09-11T06:53:39.724Z,17.00
2018-09-11T06:56:08.976Z,16.90
2018-09-11T06:58:38.178Z,16.90
2018-09-11T07:01:07.421Z,17.00
2018-09-11T07:03:36.638Z,17.00
2018-09-11T07:06:05.857Z,17.10
2018-09-11T07:08:35.081Z,17.10
2018-09-11T07:11:04.306Z,17.10
2018-09-11T07:13:33.500Z,17.20
2018-09-11T07:16:02.732Z,17.30
2018-09-11T07:18:31.929Z,17.40
2018-09-11T07:21:01.316Z,17.40
2018-09-11T07:23:30.685Z,17.50
2018-09-11T07:25:59.967Z,17.60
2018-09-11T07:28:29.153Z,17.70
2018-09-11T07:30:58.368Z,17.80
2018-09-11T07:33:27.557Z,17.90
2018-09-11T07:35:57.185Z,18.00
2018-09-11T07:38:26.364Z,18.10
2018-09-11T07:40:55.808Z,18.20
2018-09-11T07:43:24.992Z,18.40
2018-09-11T07:46:00.964Z,18.40
2018-09-11T07:48:30.401Z,18.50
2018-09-11T07:50:59.625Z,18.70
2018-09-11T07:53:28.825Z,18.80
2018-09-11T07:55:58.107Z,18.90
2018-09-11T07:58:27.279Z,19.00
2018-09-11T08:00:56.534Z,19.10
2018-09-11T08:03:25.739Z,19.20
2018-09-11T08:05:54.959Z,19.30
2018-09-11T08:08:24.149Z,19.40
2018-09-11T08:10:53.747Z,19.50
2018-09-11T08:13:22.933Z,19.70
2018-09-11T08:15:52.158Z,19.80
2018-09-11T08:18:21.348Z,20.00
2018-09-11T08:20:50.560Z,20.10
2018-09-11T08:23:19.763Z,20.20
2018-09-11T08:25:49.012Z,20.20
2018-09-11T08:28:18.199Z,20.30
2018-09-11T08:30:47.444Z,20.40
2018-09-11T08:33:16.669Z,20.40
2018-09-11T08:35:45.892Z,20.40
2018-09-11T08:38:15.084Z,20.60
2018-09-11T08:40:44.288Z,20.60
2018-09-11T08:43:13.452Z,20.60
2018-09-11T08:45:42.631Z,20.60
2018-09-11T08:48:11.828Z,20.70
2018-09-11T08:50:41.035Z,20.80
2018-09-11T08:53:10.203Z,20.80
2018-09-11T08:55:39.401Z,20.90
2018-09-11T08:58:08.584Z,21.00
2018-09-11T09:00:37.779Z,21.00
2018-09-11T09:03:07.265Z,20.90
2018-09-11T09:05:36.467Z,20.90
2018-09-11T09:08:05.672Z,20.90
2018-09-11T09:10:34.944Z,21.00
2018-09-11T09:13:04.129Z,21.10
2018-09-11T09:15:33.344Z,21.00
2018-09-11T09:18:02.521Z,21.10
2018-09-11T09:20:31.720Z,21.10
2018-09-11T09:23:00.925Z,21.10
2018-09-11T09:25:30.488Z,21.30
2018-09-11T09:27:59.672Z,21.40
2018-09-11T09:30:28.860Z,21.40
2018-09-11T09:32:58.272Z,21.30
2018-09-11T09:35:33.720Z,21.30
2018-09-11T09:38:02.987Z,21.40
2018-09-11T09:40:32.197Z,21.50
2018-09-11T09:43:01.420Z,21.50
2018-09-11T09:45:30.597Z,21.60
2018-09-11T09:47:59.820Z,21.60
2018-09-11T09:50:29.008Z,21.70
2018-09-11T09:52:58.206Z,21.80
2018-09-11T09:55:27.412Z,21.80
2018-09-11T09:57:56.603Z,21.80
2018-09-11T10:01:35.016Z,21.80
2018-09-11T10:04:04.230Z,22.00
2018-09-11T10:06:33.435Z,21.90
2018-09-11T10:09:02.647Z,22.00
2018-09-11T10:11:31.876Z,22.20
2018-09-11T10:14:01.066Z,22.30
2018-09-11T10:16:30.271Z,22.50
2018-09-11T10:18:59.501Z,22.50
2018-09-11T10:21:28.693Z,22.50
2018-09-11T10:23:57.872Z,22.50
2018-09-11T10:26:27.080Z,22.50
2018-09-11T10:28:56.271Z,22.60
2018-09-11T10:31:25.461Z,22.80
2018-09-11T10:33:54.841Z,23.00
2018-09-11T10:36:23.972Z,23.40
2018-09-11T10:38:53.148Z,23.30
2018-09-11T10:41:22.353Z,23.40
2018-09-11T10:43:51.528Z,23.40
2018-09-11T10:46:20.794Z,23.50
2018-09-11T10:48:50.138Z,23.60
2018-09-11T10:51:19.340Z,23.80
2018-09-11T10:53:48.556Z,23.80
2018-09-11T10:56:17.765Z,23.90
2018-09-11T10:58:46.929Z,23.70
2018-09-11T11:01:16.194Z,23.70
2018-09-11T11:03:45.578Z,23.70
2018-09-11T11:06:14.755Z,23.80
2018-09-11T11:08:43.962Z,23.90
2018-09-11T11:11:13.169Z,24.10
2018-09-11T11:13:42.396Z,24.10
2018-09-11T11:16:11.579Z,23.90
2018-09-11T11:18:40.784Z,23.80
2018-09-11T11:21:09.969Z,23.70
2018-09-11T11:23:39.201Z,23.70
2018-09-11T11:26:08.385Z,23.90
2018-09-11T11:28:37.596Z,23.90
2018-09-11T11:31:06.776Z,23.90
2018-09-11T11:33:36.002Z,23.90
2018-09-11T11:36:05.281Z,24.10
2018-09-11T11:38:34.423Z,24.10
2018-09-11T11:41:03.616Z,24.10
2018-09-11T11:43:32.836Z,24.00
2018-09-11T11:46:02.197Z,24.10
2018-09-11T11:48:31.401Z,24.10
2018-09-11T11:51:00.640Z,24.30
2018-09-11T11:53:29.840Z,24.40
2018-09-11T11:55:59.021Z,24.40
2018-09-11T11:58:28.213Z,24.40
2018-09-11T12:00:57.389Z,24.40
2018-09-11T12:03:26.576Z,24.50
2018-09-11T12:05:55.752Z,24.50
2018-09-11T12:08:24.968Z,24.60
2018-09-11T12:10:54.173Z,24.90
2018-09-11T12:13:23.369Z,25.00
2018-09-11T12:15:52.560Z,24.80
2018-09-11T12:18:21.784Z,25.00
2018-09-11T12:20:50.977Z,25.10
2018-09-11T12:23:20.180Z,25.10
2018-09-11T12:25:49.391Z,25.10
2018-09-11T12:28:18.597Z,25.30
2018-09-11T12:30:47.918Z,25.40
2018-09-11T12:33:17.204Z,25.70
2018-09-11T12:35:46.420Z,25.80
2018-09-11T12:38:15.612Z,25.60
2018-09-11T12:40:44.838Z,25.70
2018-09-11T12:43:14.032Z,25.70
2018-09-11T12:45:43.240Z,25.60
2018-09-11T12:48:12.897Z,25.50
2018-09-11T12:50:41.655Z,25.60
2018-09-11T12:53:10.901Z,25.70
2018-09-11T12:55:40.129Z,25.80
2018-09-11T12:58:09.481Z,25.80
2018-09-11T13:00:38.685Z,25.60
2018-09-11T13:03:07.888Z,25.40
2018-09-11T13:05:37.070Z,25.60
2018-09-11T13:08:06.286Z,25.50
2018-09-11T13:10:35.504Z,25.60
2018-09-11T13:13:04.902Z,25.60
2018-09-11T13:15:34.116Z,25.60
2018-09-11T13:18:03.364Z,25.60
2018-09-11T13:20:32.596Z,25.70
2018-09-11T13:23:01.949Z,25.70
2018-09-11T13:25:31.205Z,25.80
2018-09-11T13:28:00.520Z,25.70
2018-09-11T13:30:29.745Z,25.70
2018-09-11T13:32:58.936Z,25.60
2018-09-11T13:35:28.100Z,25.50
2018-09-11T13:37:57.301Z,25.40
2018-09-11T13:40:26.482Z,25.20
2018-09-11T13:42:55.712Z,25.30
2018-09-11T13:45:24.892Z,25.30
2018-09-11T13:47:54.105Z,25.30
2018-09-11T13:50:23.297Z,25.30
2018-09-11T13:52:52.496Z,25.40
2018-09-11T13:55:21.740Z,25.60
2018-09-11T13:57:50.974Z,25.70
2018-09-11T14:00:20.165Z,25.70
2018-09-11T14:02:49.356Z,25.60
2018-09-11T14:05:18.537Z,25.60
2018-09-11T14:07:47.735Z,25.60
2018-09-11T14:10:16.957Z,25.50
2018-09-11T14:12:46.156Z,25.40
2018-09-11T14:15:15.804Z,25.60
2018-09-11T14:17:45.021Z,25.50
2018-09-11T14:20:14.211Z,25.60
2018-09-11T14:22:43.428Z,25.60
2018-09-11T14:25:12.629Z,25.50
2018-09-11T14:27:41.821Z,25.30
2018-09-11T14:30:11.061Z,25.30
2018-09-11T14:32:40.270Z,25.40
2018-09-11T14:35:09.504Z,25.40
2018-09-11T14:37:38.696Z,25.40
2018-09-11T14:40:07.912Z,25.30
2018-09-11T14:42:37.096Z,25.30
2018-09-11T14:45:06.356Z,25.30
2018-09-11T14:47:40.853Z,25.40
2018-09-11T14:50:10.129Z,25.40
2018-09-11T14:52:39.558Z,25.40
2018-09-11T14:55:09.385Z,25.40
2018-09-11T14:57:39.793Z,25.40
2018-09-11T15:00:09.088Z,25.50
2018-09-11T15:02:38.227Z,25.50
2018-09-11T15:05:07.488Z,25.50
2018-09-11T15:07:36.700Z,25.50
2018-09-11T15:10:05.937Z,25.40
2018-09-11T15:12:35.124Z,25.40
2018-09-11T15:15:04.347Z,25.40
2018-09-11T15:17:34.332Z,25.50
2018-09-11T15:20:03.533Z,25.60
2018-09-11T15:22:32.825Z,25.50
2018-09-11T15:25:02.132Z,25.50
2018-09-11T15:27:31.305Z,25.60
2018-09-11T15:30:00.558Z,25.60
2018-09-11T15:32:29.709Z,25.60
2018-09-11T15:34:58.965Z,25.50
2018-09-11T15:37:28.133Z,25.50
2018-09-11T15:39:57.377Z,25.40
2018-09-11T15:42:26.560Z,25.50
2018-09-11T15:44:55.740Z,25.40
2018-09-11T15:47:24.917Z,25.50
2018-09-11T15:49:54.117Z,25.60
2018-09-11T15:52:23.296Z,25.50
2018-09-11T15:54:52.508Z,25.50
2018-09-11T15:57:21.712Z,25.50
2018-09-11T15:59:50.909Z,25.40
2018-09-11T16:02:20.092Z,25.40
2018-09-11T16:04:49.296Z,25.40
2018-09-11T16:07:18.457Z,25.40
2018-09-11T16:09:47.685Z,25.40
2018-09-11T16:12:16.872Z,25.30
2018-09-11T16:14:46.066Z,25.20
2018-09-11T16:17:15.293Z,25.20
2018-09-11T16:19:44.476Z,25.00
2018-09-11T16:22:13.789Z,25.00
2018-09-11T16:24:42.943Z,25.00
2018-09-11T16:27:12.137Z,25.00
2018-09-11T16:29:41.545Z,25.00
2018-09-11T16:32:10.723Z,24.90
2018-09-11T16:34:39.921Z,24.90
2018-09-11T16:37:09.092Z,24.90
2018-09-11T16:39:38.288Z,24.80
2018-09-11T16:42:07.536Z,24.80
2018-09-11T16:44:36.984Z,24.70
2018-09-11T16:47:06.373Z,24.70
2018-09-11T16:49:35.576Z,24.70
2018-09-11T16:52:04.774Z,24.60
2018-09-11T16:54:34.076Z,24.60
2018-09-11T16:57:03.255Z,24.50
2018-09-11T16:59:32.468Z,24.50
2018-09-11T17:02:01.702Z,24.50
2018-09-11T17:04:30.900Z,24.40
2018-09-11T17:07:00.115Z,24.40
2018-09-11T17:09:29.324Z,24.30
2018-09-11T17:11:58.569Z,24.30
2018-09-11T17:14:27.776Z,24.20
2018-09-11T17:16:56.944Z,24.20
2018-09-11T17:19:26.152Z,24.10
2018-09-11T17:21:55.620Z,24.10
2018-09-11T17:24:24.821Z,24.00
2018-09-11T17:26:54.032Z,23.90
2018-09-11T17:29:23.301Z,23.90
2018-09-11T17:31:52.480Z,23.90
2018-09-11T17:34:21.687Z,23.80
2018-09-11T17:36:50.896Z,23.70
2018-09-11T17:39:20.100Z,23.60
2018-09-11T17:41:49.332Z,23.60
2018-09-11T17:44:18.497Z,23.60
2018-09-11T17:46:47.704Z,23.60
2018-09-11T17:49:16.982Z,23.50
2018-09-11T17:51:46.117Z,23.50
2018-09-11T17:54:15.294Z,23.40
2018-09-11T17:56:44.494Z,23.30
2018-09-11T17:59:13.660Z,23.30
2018-09-11T18:01:42.841Z,23.30
2018-09-11T18:04:12.032Z,23.20
2018-09-11T18:06:41.248Z,23.20
2018-09-11T18:09:10.429Z,23.20
2018-09-11T18:11:39.668Z,23.10
2018-09-11T18:14:08.856Z,23.10
2018-09-11T18:16:38.043Z,23.10
2018-09-11T18:19:07.300Z,23.00
2018-09-11T18:21:36.489Z,23.00
2018-09-11T18:24:05.669Z,22.90
2018-09-11T18:26:39.615Z,22.90
2018-09-11T18:29:09.211Z,22.90
2018-09-11T18:31:38.449Z,22.80
2018-09-11T18:34:07.684Z,22.70
2018-09-11T18:36:36.969Z,22.70
2018-09-11T18:39:08.562Z,22.60
2018-09-11T18:41:37.769Z,22.50
2018-09-11T18:44:06.980Z,22.50
2018-09-11T18:46:36.212Z,22.40
2018-09-11T18:49:05.561Z,22.30
2018-09-11T18:51:34.798Z,22.30
2018-09-11T18:54:03.987Z,22.20
2018-09-11T18:56:33.220Z,22.10
2018-09-11T19:01:53.962Z,22.10
2018-09-11T19:04:23.141Z,22.00
2018-09-11T19:06:52.331Z,22.00
2018-09-11T19:09:21.530Z,21.90
2018-09-11T19:11:50.740Z,21.80
2018-09-11T19:14:19.929Z,21.80
2018-09-11T19:16:49.164Z,21.70
2018-09-11T19:19:18.353Z,21.70
2018-09-11T19:21:47.561Z,21.70
2018-09-11T19:24:16.749Z,21.60
2018-09-11T19:26:45.995Z,21.60
2018-09-11T19:29:15.242Z,21.60
2018-09-11T19:31:44.446Z,21.50
2018-09-11T19:36:49.068Z,21.50
2018-09-11T19:39:18.227Z,21.30
2018-09-11T19:41:47.423Z,21.30
2018-09-11T19:44:16.610Z,21.20
2018-09-11T19:46:45.801Z,21.20
2018-09-11T19:49:14.981Z,21.20
2018-09-11T19:51:44.172Z,21.20
2018-09-11T19:54:13.371Z,21.20
2018-09-11T19:56:42.948Z,21.10
2018-09-11T19:59:18.464Z,21.00
2018-09-11T20:01:47.668Z,21.00
2018-09-11T20:04:16.861Z,21.00
2018-09-11T20:06:46.055Z,21.00
2018-09-11T20:09:15.229Z,20.90
2018-09-11T20:11:44.448Z,20.90
2018-09-11T20:14:13.646Z,20.80
2018-09-11T20:16:42.888Z,20.80
2018-09-11T20:19:12.081Z,20.70
2018-09-11T20:21:41.281Z,20.70
2018-09-11T20:24:10.507Z,20.60
2018-09-11T20:26:39.768Z,20.70
2018-09-11T20:29:08.937Z,20.70
2018-09-11T20:31:38.300Z,20.60
2018-09-11T20:34:07.549Z,20.50
2018-09-11T20:36:36.789Z,20.40
2018-09-11T20:39:09.584Z,20.40
2018-09-11T20:41:38.812Z,20.50
2018-09-11T20:44:08.737Z,20.40
2018-09-11T20:46:37.972Z,20.40
2018-09-11T20:49:07.153Z,20.40
2018-09-11T20:51:36.383Z,20.30
2018-09-11T20:54:05.626Z,20.20
2018-09-11T20:56:34.821Z,20.20
2018-09-11T20:59:04.001Z,20.20
2018-09-11T21:01:33.213Z,20.10
2018-09-11T21:04:02.460Z,20.00
2018-09-11T21:06:31.744Z,19.90
2018-09-11T21:09:00.941Z,19.90
2018-09-11T21:11:30.144Z,19.80
2018-09-11T21:13:59.312Z,19.70
2018-09-11T21:16:28.502Z,19.70
2018-09-11T21:18:57.689Z,19.70
2018-09-11T21:21:26.888Z,19.50
2018-09-11T21:23:56.068Z,19.50
2018-09-11T21:26:25.328Z,19.40
2018-09-11T21:28:54.510Z,19.50
2018-09-11T21:31:23.715Z,19.40
2018-09-11T21:33:52.877Z,19.30
2018-09-11T21:36:22.173Z,19.30
2018-09-11T21:38:51.357Z,19.20
2018-09-11T21:41:20.624Z,19.10
2018-09-11T21:43:49.805Z,19.00
2018-09-11T21:46:19.056Z,19.10
2018-09-11T21:48:48.284Z,19.10
2018-09-11T21:51:17.490Z,19.10
2018-09-11T21:53:46.684Z,19.00
2018-09-11T21:56:15.896Z,18.80
2018-09-11T21:58:45.117Z,18.70
2018-09-11T22:01:19.568Z,18.60
2018-09-11T22:03:48.780Z,18.60
2018-09-11T22:06:17.960Z,18.70
2018-09-11T22:08:47.161Z,18.60
2018-09-11T22:11:16.372Z,18.50
2018-09-11T22:13:48.688Z,18.40
2018-09-11T22:16:17.849Z,18.30
2018-09-11T22:18:47.044Z,18.30
2018-09-11T22:21:16.235Z,18.30
2018-09-11T22:23:45.430Z,18.30
2018-09-11T22:26:14.613Z,18.20
2018-09-11T22:28:43.822Z,18.20
2018-09-11T22:31:12.996Z,18.10
2018-09-11T22:33:42.210Z,18.00
2018-09-11T22:36:11.378Z,17.90
2018-09-11T22:38:40.569Z,17.80
2018-09-11T22:41:09.752Z,17.70
2018-09-11T22:43:39.136Z,17.70
2018-09-11T22:46:08.373Z,17.70
2018-09-11T22:48:37.573Z,17.60
2018-09-11T22:51:07.256Z,17.70
2018-09-11T22:53:36.789Z,17.70
2018-09-11T22:56:05.959Z,17.60
2018-09-11T22:58:35.169Z,17.40
2018-09-11T23:01:04.345Z,17.30
2018-09-11T23:03:33.554Z,17.30
2018-09-11T23:06:03.288Z,17.40
2018-09-11T23:08:32.495Z,17.40
2018-09-11T23:11:01.712Z,17.50
2018-09-11T23:13:30.925Z,17.60
2018-09-11T23:16:00.142Z,17.70
2018-09-11T23:18:29.497Z,17.70
2018-09-11T23:20:58.687Z,17.60
2018-09-11T23:23:27.893Z,17.70
2018-09-11T23:25:57.072Z,17.70
2018-09-11T23:28:26.264Z,17.60
2018-09-11T23:30:55.493Z,17.60
2018-09-11T23:33:24.720Z,17.60
2018-09-11T23:35:53.908Z,17.50
2018-09-11T23:38:23.116Z,17.40
2018-09-11T23:40:52.293Z,17.30
2018-09-11T23:43:21.548Z,17.20
2018-09-11T23:45:50.712Z,17.10
2018-09-11T23:48:19.920Z,17.00
2018-09-11T23:50:49.098Z,17.00
2018-09-11T23:53:18.440Z,16.90
2018-09-11T23:55:47.643Z,16.90
2018-09-11T23:58:16.832Z,16.90
